sensor_id;sensor_type;location;lat;lon;timestamp;temperature;humidity
60848;DHT22;46681;47.696;9.140;2023-09-19T00:02:06;19.10;68.60
60848;DHT22;46681;47.696;9.140;2023-09-19T00:04:32;19.20;68.60
60848;DHT22;46681;47.696;9.140;2023-09-19T00:06:58;19.20;68.90
60848;DHT22;46681;47.696;9.140;2023-09-19T00:09:24;19.20;69.00
60848;DHT22;46681;47.696;9.140;2023-09-19T00:11:50;19.20;68.80
60848;DHT22;46681;47.696;9.140;2023-09-19T00:14:15;19.20;69.10
60848;DHT22;46681;47.696;9.140;2023-09-19T00:16:41;19.20;68.80
60848;DHT22;46681;47.696;9.140;2023-09-19T00:19:07;19.20;68.80
60848;DHT22;46681;47.696;9.140;2023-09-19T00:21:32;19.20;68.70
60848;DHT22;46681;47.696;9.140;2023-09-19T00:23:59;19.20;68.90
60848;DHT22;46681;47.696;9.140;2023-09-19T00:26:25;19.20;68.80
60848;DHT22;46681;47.696;9.140;2023-09-19T00:28:52;19.20;69.00
60848;DHT22;46681;47.696;9.140;2023-09-19T00:31:18;19.20;68.80
60848;DHT22;46681;47.696;9.140;2023-09-19T00:33:43;19.20;69.10
60848;DHT22;46681;47.696;9.140;2023-09-19T00:36:09;19.20;69.40
60848;DHT22;46681;47.696;9.140;2023-09-19T00:38:40;19.20;69.00
60848;DHT22;46681;47.696;9.140;2023-09-19T00:41:05;19.20;68.60
60848;DHT22;46681;47.696;9.140;2023-09-19T00:43:31;19.20;68.60
60848;DHT22;46681;47.696;9.140;2023-09-19T00:45:56;19.10;68.90
60848;DHT22;46681;47.696;9.140;2023-09-19T00:48:23;19.10;69.20
60848;DHT22;46681;47.696;9.140;2023-09-19T00:50:49;19.20;68.80
60848;DHT22;46681;47.696;9.140;2023-09-19T00:53:20;19.20;68.80
60848;DHT22;46681;47.696;9.140;2023-09-19T00:55:47;19.20;69.10
60848;DHT22;46681;47.696;9.140;2023-09-19T00:58:18;19.20;68.80
60848;DHT22;46681;47.696;9.140;2023-09-19T01:00:50;19.20;68.90
60848;DHT22;46681;47.696;9.140;2023-09-19T01:03:16;19.10;68.80
60848;DHT22;46681;47.696;9.140;2023-09-19T01:05:50;19.10;68.60
60848;DHT22;46681;47.696;9.140;2023-09-19T01:08:16;19.10;69.20
60848;DHT22;46681;47.696;9.140;2023-09-19T01:10:55;19.10;68.80
60848;DHT22;46681;47.696;9.140;2023-09-19T01:13:48;19.10;68.70
60848;DHT22;46681;47.696;9.140;2023-09-19T01:17:26;19.10;68.90
60848;DHT22;46681;47.696;9.140;2023-09-19T01:22:18;19.10;68.40
60848;DHT22;46681;47.696;9.140;2023-09-19T01:30:35;19.10;68.20
60848;DHT22;46681;47.696;9.140;2023-09-19T01:33:06;19.10;68.40
60848;DHT22;46681;47.696;9.140;2023-09-19T01:35:31;19.10;68.40
60848;DHT22;46681;47.696;9.140;2023-09-19T01:37:57;19.10;68.30
60848;DHT22;46681;47.696;9.140;2023-09-19T01:40:23;19.10;68.30
60848;DHT22;46681;47.696;9.140;2023-09-19T01:43:06;19.10;68.10
60848;DHT22;46681;47.696;9.140;2023-09-19T01:48:46;19.10;67.80
60848;DHT22;46681;47.696;9.140;2023-09-19T01:54:30;19.10;68.20
60848;DHT22;46681;47.696;9.140;2023-09-19T01:57:09;19.00;68.00
60848;DHT22;46681;47.696;9.140;2023-09-19T01:59:46;19.10;68.60
60848;DHT22;46681;47.696;9.140;2023-09-19T02:02:16;19.00;68.30
60848;DHT22;46681;47.696;9.140;2023-09-19T02:04:42;19.00;68.00
60848;DHT22;46681;47.696;9.140;2023-09-19T02:07:12;19.00;68.10
60848;DHT22;46681;47.696;9.140;2023-09-19T02:09:41;19.00;68.10
60848;DHT22;46681;47.696;9.140;2023-09-19T02:12:09;19.00;67.80
60848;DHT22;46681;47.696;9.140;2023-09-19T02:14:35;19.00;67.90
60848;DHT22;46681;47.696;9.140;2023-09-19T02:17:03;19.00;68.10
60848;DHT22;46681;47.696;9.140;2023-09-19T02:19:28;19.00;67.70
60848;DHT22;46681;47.696;9.140;2023-09-19T02:21:54;19.00;68.10
60848;DHT22;46681;47.696;9.140;2023-09-19T02:24:19;19.00;68.00
60848;DHT22;46681;47.696;9.140;2023-09-19T02:26:45;18.90;67.70
60848;DHT22;46681;47.696;9.140;2023-09-19T02:29:10;18.90;68.00
60848;DHT22;46681;47.696;9.140;2023-09-19T02:31:37;18.90;68.00
60848;DHT22;46681;47.696;9.140;2023-09-19T02:34:02;18.90;68.00
60848;DHT22;46681;47.696;9.140;2023-09-19T02:36:31;18.90;68.10
60848;DHT22;46681;47.696;9.140;2023-09-19T02:38:56;18.90;68.00
60848;DHT22;46681;47.696;9.140;2023-09-19T02:41:22;18.90;67.90
60848;DHT22;46681;47.696;9.140;2023-09-19T02:43:47;18.90;67.80
60848;DHT22;46681;47.696;9.140;2023-09-19T02:46:13;18.90;67.70
60848;DHT22;46681;47.696;9.140;2023-09-19T02:48:38;18.90;67.80
60848;DHT22;46681;47.696;9.140;2023-09-19T02:51:07;18.90;68.30
60848;DHT22;46681;47.696;9.140;2023-09-19T02:53:33;18.90;68.10
60848;DHT22;46681;47.696;9.140;2023-09-19T02:55:58;18.80;68.00
60848;DHT22;46681;47.696;9.140;2023-09-19T02:58:29;18.90;67.90
60848;DHT22;46681;47.696;9.140;2023-09-19T03:00:55;18.80;67.90
60848;DHT22;46681;47.696;9.140;2023-09-19T03:03:20;18.80;67.80
60848;DHT22;46681;47.696;9.140;2023-09-19T03:05:46;18.80;68.10
60848;DHT22;46681;47.696;9.140;2023-09-19T03:08:12;18.80;68.00
60848;DHT22;46681;47.696;9.140;2023-09-19T03:10:38;18.80;68.30
60848;DHT22;46681;47.696;9.140;2023-09-19T03:13:06;18.80;68.10
60848;DHT22;46681;47.696;9.140;2023-09-19T03:15:32;18.80;68.10
60848;DHT22;46681;47.696;9.140;2023-09-19T03:17:57;18.80;68.00
60848;DHT22;46681;47.696;9.140;2023-09-19T03:20:23;18.80;68.10
60848;DHT22;46681;47.696;9.140;2023-09-19T03:22:48;18.80;67.50
60848;DHT22;46681;47.696;9.140;2023-09-19T03:25:22;18.80;67.90
60848;DHT22;46681;47.696;9.140;2023-09-19T03:27:47;18.80;67.90
60848;DHT22;46681;47.696;9.140;2023-09-19T03:30:15;18.80;67.80
60848;DHT22;46681;47.696;9.140;2023-09-19T03:32:47;18.80;67.90
60848;DHT22;46681;47.696;9.140;2023-09-19T03:35:13;18.80;67.90
60848;DHT22;46681;47.696;9.140;2023-09-19T03:37:38;18.80;67.70
60848;DHT22;46681;47.696;9.140;2023-09-19T03:40:06;18.80;68.00
60848;DHT22;46681;47.696;9.140;2023-09-19T03:42:33;18.80;67.80
60848;DHT22;46681;47.696;9.140;2023-09-19T03:44:58;18.80;68.20
60848;DHT22;46681;47.696;9.140;2023-09-19T03:47:24;18.80;68.00
60848;DHT22;46681;47.696;9.140;2023-09-19T03:49:49;18.80;67.70
60848;DHT22;46681;47.696;9.140;2023-09-19T03:52:21;18.80;67.90
60848;DHT22;46681;47.696;9.140;2023-09-19T03:54:47;18.80;68.00
60848;DHT22;46681;47.696;9.140;2023-09-19T03:57:12;18.80;67.90
60848;DHT22;46681;47.696;9.140;2023-09-19T03:59:38;18.80;67.80
60848;DHT22;46681;47.696;9.140;2023-09-19T04:02:07;18.80;67.70
60848;DHT22;46681;47.696;9.140;2023-09-19T04:04:37;18.80;68.00
60848;DHT22;46681;47.696;9.140;2023-09-19T04:07:07;18.80;67.70
60848;DHT22;46681;47.696;9.140;2023-09-19T04:09:33;18.80;67.70
60848;DHT22;46681;47.696;9.140;2023-09-19T04:11:59;18.80;67.80
60848;DHT22;46681;47.696;9.140;2023-09-19T04:14:28;18.80;67.70
60848;DHT22;46681;47.696;9.140;2023-09-19T04:16:53;18.80;67.80
60848;DHT22;46681;47.696;9.140;2023-09-19T04:19:22;18.80;67.90
60848;DHT22;46681;47.696;9.140;2023-09-19T04:21:47;18.80;67.70
60848;DHT22;46681;47.696;9.140;2023-09-19T04:24:13;18.80;69.00
60848;DHT22;46681;47.696;9.140;2023-09-19T04:26:38;18.80;70.10
60848;DHT22;46681;47.696;9.140;2023-09-19T04:29:07;18.80;68.90
60848;DHT22;46681;47.696;9.140;2023-09-19T04:31:32;18.80;68.50
60848;DHT22;46681;47.696;9.140;2023-09-19T04:33:59;18.80;68.50
60848;DHT22;46681;47.696;9.140;2023-09-19T04:36:25;18.80;68.40
60848;DHT22;46681;47.696;9.140;2023-09-19T04:38:51;18.80;68.40
60848;DHT22;46681;47.696;9.140;2023-09-19T04:41:16;18.80;68.00
60848;DHT22;46681;47.696;9.140;2023-09-19T04:43:43;18.80;69.20
60848;DHT22;46681;47.696;9.140;2023-09-19T04:46:08;18.80;69.00
60848;DHT22;46681;47.696;9.140;2023-09-19T04:48:35;18.80;68.80
60848;DHT22;46681;47.696;9.140;2023-09-19T04:51:07;18.80;71.10
60848;DHT22;46681;47.696;9.140;2023-09-19T04:53:33;18.90;71.50
60848;DHT22;46681;47.696;9.140;2023-09-19T04:56:03;18.90;70.20
60848;DHT22;46681;47.696;9.140;2023-09-19T04:58:32;18.90;69.90
60848;DHT22;46681;47.696;9.140;2023-09-19T05:01:05;18.90;70.00
60848;DHT22;46681;47.696;9.140;2023-09-19T05:03:31;18.80;69.50
60848;DHT22;46681;47.696;9.140;2023-09-19T05:05:59;18.80;69.60
60848;DHT22;46681;47.696;9.140;2023-09-19T05:08:25;18.80;69.50
60848;DHT22;46681;47.696;9.140;2023-09-19T05:10:58;18.90;69.50
60848;DHT22;46681;47.696;9.140;2023-09-19T05:13:37;18.80;69.10
60848;DHT22;46681;47.696;9.140;2023-09-19T05:16:03;18.80;70.60
60848;DHT22;46681;47.696;9.140;2023-09-19T05:18:49;18.90;71.80
60848;DHT22;46681;47.696;9.140;2023-09-19T05:21:18;18.90;70.60
60848;DHT22;46681;47.696;9.140;2023-09-19T05:23:45;18.90;71.50
60848;DHT22;46681;47.696;9.140;2023-09-19T05:26:11;19.00;73.90
60848;DHT22;46681;47.696;9.140;2023-09-19T05:28:37;19.00;73.30
60848;DHT22;46681;47.696;9.140;2023-09-19T05:31:11;19.10;73.40
60848;DHT22;46681;47.696;9.140;2023-09-19T05:33:39;19.20;74.10
60848;DHT22;46681;47.696;9.140;2023-09-19T05:36:09;19.20;74.00
60848;DHT22;46681;47.696;9.140;2023-09-19T05:38:36;19.20;73.60
60848;DHT22;46681;47.696;9.140;2023-09-19T05:41:08;19.20;73.00
60848;DHT22;46681;47.696;9.140;2023-09-19T05:43:34;19.20;72.70
60848;DHT22;46681;47.696;9.140;2023-09-19T05:46:02;19.30;72.60
60848;DHT22;46681;47.696;9.140;2023-09-19T05:48:36;19.30;72.00
60848;DHT22;46681;47.696;9.140;2023-09-19T05:51:04;19.30;71.70
60848;DHT22;46681;47.696;9.140;2023-09-19T05:53:30;19.30;71.50
60848;DHT22;46681;47.696;9.140;2023-09-19T05:56:15;19.30;71.30
60848;DHT22;46681;47.696;9.140;2023-09-19T05:58:46;19.30;71.40
60848;DHT22;46681;47.696;9.140;2023-09-19T06:01:14;19.30;71.30
60848;DHT22;46681;47.696;9.140;2023-09-19T06:03:43;19.30;71.10
60848;DHT22;46681;47.696;9.140;2023-09-19T06:06:09;19.30;71.00
60848;DHT22;46681;47.696;9.140;2023-09-19T06:08:35;19.40;70.70
60848;DHT22;46681;47.696;9.140;2023-09-19T06:11:03;19.40;70.60
60848;DHT22;46681;47.696;9.140;2023-09-19T06:13:31;19.40;70.50
60848;DHT22;46681;47.696;9.140;2023-09-19T06:15:58;19.40;70.20
60848;DHT22;46681;47.696;9.140;2023-09-19T06:18:24;19.30;70.10
60848;DHT22;46681;47.696;9.140;2023-09-19T06:20:58;19.40;70.20
60848;DHT22;46681;47.696;9.140;2023-09-19T06:23:30;19.40;70.10
60848;DHT22;46681;47.696;9.140;2023-09-19T06:25:58;19.40;69.80
60848;DHT22;46681;47.696;9.140;2023-09-19T06:28:27;19.50;69.70
60848;DHT22;46681;47.696;9.140;2023-09-19T06:31:03;19.40;69.70
60848;DHT22;46681;47.696;9.140;2023-09-19T06:33:45;19.50;69.70
60848;DHT22;46681;47.696;9.140;2023-09-19T06:36:16;19.50;69.90
60848;DHT22;46681;47.696;9.140;2023-09-19T06:38:47;19.50;69.40
60848;DHT22;46681;47.696;9.140;2023-09-19T06:41:12;19.50;69.20
60848;DHT22;46681;47.696;9.140;2023-09-19T06:43:38;19.60;69.10
60848;DHT22;46681;47.696;9.140;2023-09-19T06:46:09;19.50;68.90
60848;DHT22;46681;47.696;9.140;2023-09-19T06:48:36;19.60;68.90
60848;DHT22;46681;47.696;9.140;2023-09-19T06:51:02;19.60;68.90
60848;DHT22;46681;47.696;9.140;2023-09-19T06:53:33;19.60;68.50
60848;DHT22;46681;47.696;9.140;2023-09-19T06:56:02;19.60;68.50
60848;DHT22;46681;47.696;9.140;2023-09-19T06:58:40;19.60;68.50
60848;DHT22;46681;47.696;9.140;2023-09-19T07:01:18;19.70;68.30
60848;DHT22;46681;47.696;9.140;2023-09-19T07:03:48;19.70;68.40
60848;DHT22;46681;47.696;9.140;2023-09-19T07:06:17;19.70;68.20
60848;DHT22;46681;47.696;9.140;2023-09-19T07:08:43;19.70;68.00
60848;DHT22;46681;47.696;9.140;2023-09-19T07:11:17;19.80;68.00
60848;DHT22;46681;47.696;9.140;2023-09-19T07:13:57;19.80;67.90
60848;DHT22;46681;47.696;9.140;2023-09-19T07:16:23;19.80;67.90
60848;DHT22;46681;47.696;9.140;2023-09-19T07:18:59;19.80;68.20
60848;DHT22;46681;47.696;9.140;2023-09-19T07:21:28;19.80;67.50
60848;DHT22;46681;47.696;9.140;2023-09-19T07:23:57;19.90;67.60
60848;DHT22;46681;47.696;9.140;2023-09-19T07:26:31;19.90;67.30
60848;DHT22;46681;47.696;9.140;2023-09-19T07:29:00;19.90;67.10
60848;DHT22;46681;47.696;9.140;2023-09-19T07:31:35;19.90;67.00
60848;DHT22;46681;47.696;9.140;2023-09-19T07:34:01;20.00;66.60
60848;DHT22;46681;47.696;9.140;2023-09-19T07:36:27;20.00;66.30
60848;DHT22;46681;47.696;9.140;2023-09-19T07:39:15;20.10;65.60
60848;DHT22;46681;47.696;9.140;2023-09-19T07:42:19;20.20;65.50
60848;DHT22;46681;47.696;9.140;2023-09-19T07:45:18;20.30;64.90
60848;DHT22;46681;47.696;9.140;2023-09-19T07:47:59;20.40;64.80
60848;DHT22;46681;47.696;9.140;2023-09-19T07:50:34;20.50;63.90
60848;DHT22;46681;47.696;9.140;2023-09-19T07:53:14;20.60;63.00
60848;DHT22;46681;47.696;9.140;2023-09-19T07:55:43;20.70;63.20
60848;DHT22;46681;47.696;9.140;2023-09-19T07:58:14;20.80;62.70
60848;DHT22;46681;47.696;9.140;2023-09-19T08:00:40;20.90;61.90
60848;DHT22;46681;47.696;9.140;2023-09-19T08:03:12;21.10;61.30
60848;DHT22;46681;47.696;9.140;2023-09-19T08:05:45;21.20;61.40
60848;DHT22;46681;47.696;9.140;2023-09-19T08:08:12;21.30;61.10
60848;DHT22;46681;47.696;9.140;2023-09-19T08:10:56;21.50;60.80
60848;DHT22;46681;47.696;9.140;2023-09-19T08:13:34;21.60;60.40
60848;DHT22;46681;47.696;9.140;2023-09-19T08:16:13;21.80;60.10
60848;DHT22;46681;47.696;9.140;2023-09-19T08:18:41;21.90;57.90
60848;DHT22;46681;47.696;9.140;2023-09-19T08:21:12;22.10;57.50
60848;DHT22;46681;47.696;9.140;2023-09-19T08:23:38;22.20;58.00
60848;DHT22;46681;47.696;9.140;2023-09-19T08:26:13;22.20;57.00
60848;DHT22;46681;47.696;9.140;2023-09-19T08:28:59;22.30;57.20
60848;DHT22;46681;47.696;9.140;2023-09-19T08:31:30;22.30;56.80
60848;DHT22;46681;47.696;9.140;2023-09-19T08:34:02;22.30;57.00
60848;DHT22;46681;47.696;9.140;2023-09-19T08:36:35;22.20;56.40
60848;DHT22;46681;47.696;9.140;2023-09-19T08:39:01;22.20;56.40
60848;DHT22;46681;47.696;9.140;2023-09-19T08:41:38;22.20;56.90
60848;DHT22;46681;47.696;9.140;2023-09-19T08:44:12;22.20;56.40
60848;DHT22;46681;47.696;9.140;2023-09-19T08:47:00;22.10;57.30
60848;DHT22;46681;47.696;9.140;2023-09-19T08:52:44;22.30;57.60
60848;DHT22;46681;47.696;9.140;2023-09-19T08:55:16;22.40;57.50
60848;DHT22;46681;47.696;9.140;2023-09-19T08:57:45;22.40;57.60
60848;DHT22;46681;47.696;9.140;2023-09-19T09:00:16;22.30;57.60
60848;DHT22;46681;47.696;9.140;2023-09-19T09:02:44;22.30;57.70
60848;DHT22;46681;47.696;9.140;2023-09-19T09:05:20;22.30;57.70
60848;DHT22;46681;47.696;9.140;2023-09-19T09:07:57;22.30;57.80
60848;DHT22;46681;47.696;9.140;2023-09-19T09:10:25;22.30;57.30
60848;DHT22;46681;47.696;9.140;2023-09-19T09:12:55;22.30;57.90
60848;DHT22;46681;47.696;9.140;2023-09-19T09:15:40;22.20;57.90
60848;DHT22;46681;47.696;9.140;2023-09-19T09:18:09;22.30;58.00
60848;DHT22;46681;47.696;9.140;2023-09-19T09:23:39;22.30;57.90
60848;DHT22;46681;47.696;9.140;2023-09-19T09:26:16;22.40;57.90
60848;DHT22;46681;47.696;9.140;2023-09-19T09:29:00;22.40;57.80
60848;DHT22;46681;47.696;9.140;2023-09-19T09:31:57;22.50;57.50
60848;DHT22;46681;47.696;9.140;2023-09-19T09:34:48;22.60;57.50
60848;DHT22;46681;47.696;9.140;2023-09-19T09:37:21;22.60;57.30
60848;DHT22;46681;47.696;9.140;2023-09-19T09:40:06;22.70;57.10
60848;DHT22;46681;47.696;9.140;2023-09-19T09:42:46;22.90;56.90
60848;DHT22;46681;47.696;9.140;2023-09-19T09:45:22;22.90;56.70
60848;DHT22;46681;47.696;9.140;2023-09-19T09:48:11;23.00;56.50
60848;DHT22;46681;47.696;9.140;2023-09-19T09:50:56;23.00;56.30
60848;DHT22;46681;47.696;9.140;2023-09-19T09:56:08;23.00;56.10
60848;DHT22;46681;47.696;9.140;2023-09-19T09:58:54;23.00;56.10
60848;DHT22;46681;47.696;9.140;2023-09-19T10:01:55;22.90;56.30
60848;DHT22;46681;47.696;9.140;2023-09-19T10:04:47;22.80;56.40
60848;DHT22;46681;47.696;9.140;2023-09-19T10:07:32;22.80;56.70
60848;DHT22;46681;47.696;9.140;2023-09-19T10:10:43;22.70;56.70
60848;DHT22;46681;47.696;9.140;2023-09-19T10:13:22;22.70;56.90
60848;DHT22;46681;47.696;9.140;2023-09-19T10:16:13;22.60;57.10
60848;DHT22;46681;47.696;9.140;2023-09-19T10:19:00;22.60;57.20
60848;DHT22;46681;47.696;9.140;2023-09-19T10:21:31;22.60;56.90
60848;DHT22;46681;47.696;9.140;2023-09-19T10:24:09;22.50;56.70
60848;DHT22;46681;47.696;9.140;2023-09-19T10:30:06;22.50;57.00
60848;DHT22;46681;47.696;9.140;2023-09-19T10:36:27;22.60;57.70
60848;DHT22;46681;47.696;9.140;2023-09-19T10:39:25;22.60;57.60
60848;DHT22;46681;47.696;9.140;2023-09-19T10:42:13;22.70;57.30
60848;DHT22;46681;47.696;9.140;2023-09-19T10:44:58;22.80;57.10
60848;DHT22;46681;47.696;9.140;2023-09-19T10:48:00;22.90;56.90
60848;DHT22;46681;47.696;9.140;2023-09-19T11:03:30;22.90;56.50
60848;DHT22;46681;47.696;9.140;2023-09-19T11:06:23;23.10;56.40
60848;DHT22;46681;47.696;9.140;2023-09-19T11:09:25;23.40;56.10
60848;DHT22;46681;47.696;9.140;2023-09-19T11:24:32;24.00;53.80
60848;DHT22;46681;47.696;9.140;2023-09-19T11:27:26;24.00;54.10
60848;DHT22;46681;47.696;9.140;2023-09-19T11:30:36;24.00;54.10
60848;DHT22;46681;47.696;9.140;2023-09-19T11:33:47;23.90;54.00
60848;DHT22;46681;47.696;9.140;2023-09-19T11:36:36;23.90;54.10
60848;DHT22;46681;47.696;9.140;2023-09-19T11:39:27;24.00;54.00
60848;DHT22;46681;47.696;9.140;2023-09-19T11:48:23;23.90;54.20
60848;DHT22;46681;47.696;9.140;2023-09-19T11:51:23;23.90;54.20
60848;DHT22;46681;47.696;9.140;2023-09-19T11:54:10;23.80;54.30
60848;DHT22;46681;47.696;9.140;2023-09-19T11:57:06;23.80;54.40
60848;DHT22;46681;47.696;9.140;2023-09-19T12:09:12;24.80;52.90
60848;DHT22;46681;47.696;9.140;2023-09-19T12:11:49;25.20;52.30
60848;DHT22;46681;47.696;9.140;2023-09-19T12:14:33;25.60;51.80
60848;DHT22;46681;47.696;9.140;2023-09-19T12:17:58;25.90;51.10
60848;DHT22;46681;47.696;9.140;2023-09-19T12:20:47;26.20;50.40
60848;DHT22;46681;47.696;9.140;2023-09-19T12:23:43;26.30;50.30
60848;DHT22;46681;47.696;9.140;2023-09-19T12:27:09;26.70;49.80
60848;DHT22;46681;47.696;9.140;2023-09-19T12:30:01;27.00;49.50
60848;DHT22;46681;47.696;9.140;2023-09-19T12:32:57;27.20;49.40
60848;DHT22;46681;47.696;9.140;2023-09-19T12:35:37;27.40;49.00
60848;DHT22;46681;47.696;9.140;2023-09-19T12:38:44;27.60;48.80
60848;DHT22;46681;47.696;9.140;2023-09-19T12:41:34;27.80;48.40
60848;DHT22;46681;47.696;9.140;2023-09-19T12:44:31;28.00;48.30
60848;DHT22;46681;47.696;9.140;2023-09-19T12:50:25;28.20;47.90
60848;DHT22;46681;47.696;9.140;2023-09-19T12:53:35;28.50;47.70
60848;DHT22;46681;47.696;9.140;2023-09-19T12:56:03;28.60;47.40
60848;DHT22;46681;47.696;9.140;2023-09-19T12:58:34;28.80;47.10
60848;DHT22;46681;47.696;9.140;2023-09-19T13:01:17;28.70;47.10
60848;DHT22;46681;47.696;9.140;2023-09-19T13:10:18;29.00;47.20
60848;DHT22;46681;47.696;9.140;2023-09-19T13:12:55;29.20;47.00
60848;DHT22;46681;47.696;9.140;2023-09-19T13:16:10;29.20;46.80
60848;DHT22;46681;47.696;9.140;2023-09-19T13:21:42;29.50;46.60
60848;DHT22;46681;47.696;9.140;2023-09-19T13:27:11;29.20;46.30
60848;DHT22;46681;47.696;9.140;2023-09-19T13:30:12;29.00;46.70
60848;DHT22;46681;47.696;9.140;2023-09-19T13:33:15;29.00;47.20
60848;DHT22;46681;47.696;9.140;2023-09-19T13:35:49;29.00;47.00
60848;DHT22;46681;47.696;9.140;2023-09-19T13:38:26;29.00;47.30
60848;DHT22;46681;47.696;9.140;2023-09-19T13:41:10;28.80;47.10
60848;DHT22;46681;47.696;9.140;2023-09-19T13:43:55;28.80;47.60
60848;DHT22;46681;47.696;9.140;2023-09-19T13:46:49;28.80;47.30
60848;DHT22;46681;47.696;9.140;2023-09-19T13:49:36;28.90;47.40
60848;DHT22;46681;47.696;9.140;2023-09-19T13:52:24;29.10;47.30
60848;DHT22;46681;47.696;9.140;2023-09-19T13:54:53;29.30;46.90
60848;DHT22;46681;47.696;9.140;2023-09-19T14:06:43;28.80;47.50
60848;DHT22;46681;47.696;9.140;2023-09-19T14:09:30;28.70;47.60
60848;DHT22;46681;47.696;9.140;2023-09-19T14:12:11;28.70;47.50
60848;DHT22;46681;47.696;9.140;2023-09-19T14:14:52;28.80;47.80
60848;DHT22;46681;47.696;9.140;2023-09-19T14:17:20;28.90;47.60
60848;DHT22;46681;47.696;9.140;2023-09-19T14:20:02;29.10;47.50
60848;DHT22;46681;47.696;9.140;2023-09-19T14:22:46;29.20;47.30
60848;DHT22;46681;47.696;9.140;2023-09-19T14:25:44;29.30;47.10
60848;DHT22;46681;47.696;9.140;2023-09-19T14:28:38;29.30;46.70
60848;DHT22;46681;47.696;9.140;2023-09-19T14:33:59;29.30;47.10
60848;DHT22;46681;47.696;9.140;2023-09-19T14:36:49;29.30;47.20
60848;DHT22;46681;47.696;9.140;2023-09-19T14:42:38;29.30;47.20
60848;DHT22;46681;47.696;9.140;2023-09-19T14:45:22;29.20;47.20
60848;DHT22;46681;47.696;9.140;2023-09-19T14:57:20;28.70;47.00
60848;DHT22;46681;47.696;9.140;2023-09-19T14:59:55;28.60;47.30
60848;DHT22;46681;47.696;9.140;2023-09-19T15:02:28;28.40;46.80
60848;DHT22;46681;47.696;9.140;2023-09-19T15:07:44;28.20;47.50
60848;DHT22;46681;47.696;9.140;2023-09-19T15:10:10;28.10;47.30
60848;DHT22;46681;47.696;9.140;2023-09-19T15:12:45;28.00;46.60
60848;DHT22;46681;47.696;9.140;2023-09-19T15:15:25;27.90;47.90
60848;DHT22;46681;47.696;9.140;2023-09-19T15:20:46;27.60;47.60
60848;DHT22;46681;47.696;9.140;2023-09-19T15:23:27;27.50;47.60
60848;DHT22;46681;47.696;9.140;2023-09-19T15:26:13;27.40;47.80
60848;DHT22;46681;47.696;9.140;2023-09-19T15:32:12;27.20;46.90
60848;DHT22;46681;47.696;9.140;2023-09-19T15:35:11;27.10;47.50
60848;DHT22;46681;47.696;9.140;2023-09-19T15:40:32;27.00;47.70
60848;DHT22;46681;47.696;9.140;2023-09-19T15:43:17;26.90;47.00
60848;DHT22;46681;47.696;9.140;2023-09-19T15:45:47;26.70;48.60
60848;DHT22;46681;47.696;9.140;2023-09-19T15:48:23;26.70;47.80
60848;DHT22;46681;47.696;9.140;2023-09-19T15:50:49;26.60;47.50
60848;DHT22;46681;47.696;9.140;2023-09-19T15:53:22;26.50;47.90
60848;DHT22;46681;47.696;9.140;2023-09-19T15:55:53;26.40;47.90
60848;DHT22;46681;47.696;9.140;2023-09-19T15:58:27;26.40;48.10
60848;DHT22;46681;47.696;9.140;2023-09-19T16:01:22;26.40;48.50
60848;DHT22;46681;47.696;9.140;2023-09-19T16:04:21;26.30;48.50
60848;DHT22;46681;47.696;9.140;2023-09-19T16:06:52;26.20;48.30
60848;DHT22;46681;47.696;9.140;2023-09-19T16:09:34;26.10;49.30
60848;DHT22;46681;47.696;9.140;2023-09-19T16:15:15;26.00;49.50
60848;DHT22;46681;47.696;9.140;2023-09-19T16:17:55;26.00;49.50
60848;DHT22;46681;47.696;9.140;2023-09-19T16:20:30;25.90;49.50
60848;DHT22;46681;47.696;9.140;2023-09-19T16:23:15;25.90;49.50
60848;DHT22;46681;47.696;9.140;2023-09-19T16:26:29;25.80;49.60
60848;DHT22;46681;47.696;9.140;2023-09-19T16:29:05;25.80;49.80
60848;DHT22;46681;47.696;9.140;2023-09-19T16:32:02;25.70;49.90
60848;DHT22;46681;47.696;9.140;2023-09-19T16:34:48;25.60;49.90
60848;DHT22;46681;47.696;9.140;2023-09-19T16:37:46;25.60;50.20
60848;DHT22;46681;47.696;9.140;2023-09-19T16:40:15;25.50;50.10
60848;DHT22;46681;47.696;9.140;2023-09-19T16:42:46;25.50;50.20
60848;DHT22;46681;47.696;9.140;2023-09-19T16:45:19;25.40;50.30
60848;DHT22;46681;47.696;9.140;2023-09-19T16:47:49;25.40;50.40
60848;DHT22;46681;47.696;9.140;2023-09-19T16:53:46;25.20;50.70
60848;DHT22;46681;47.696;9.140;2023-09-19T16:56:14;25.10;50.60
60848;DHT22;46681;47.696;9.140;2023-09-19T16:58:47;25.00;51.40
60848;DHT22;46681;47.696;9.140;2023-09-19T17:01:18;25.00;51.40
60848;DHT22;46681;47.696;9.140;2023-09-19T17:03:55;24.90;51.50
60848;DHT22;46681;47.696;9.140;2023-09-19T17:06:36;24.90;51.60
60848;DHT22;46681;47.696;9.140;2023-09-19T17:09:23;24.80;51.80
60848;DHT22;46681;47.696;9.140;2023-09-19T17:11:53;24.80;51.90
60848;DHT22;46681;47.696;9.140;2023-09-19T17:14:26;24.70;52.10
60848;DHT22;46681;47.696;9.140;2023-09-19T17:17:13;24.70;52.30
60848;DHT22;46681;47.696;9.140;2023-09-19T17:19:44;24.60;52.50
60848;DHT22;46681;47.696;9.140;2023-09-19T17:22:34;24.50;52.60
60848;DHT22;46681;47.696;9.140;2023-09-19T17:25:09;24.40;52.80
60848;DHT22;46681;47.696;9.140;2023-09-19T17:30:47;24.30;53.00
60848;DHT22;46681;47.696;9.140;2023-09-19T17:33:17;24.20;53.40
60848;DHT22;46681;47.696;9.140;2023-09-19T17:42:10;24.00;53.70
60848;DHT22;46681;47.696;9.140;2023-09-19T17:44:56;23.90;53.80
60848;DHT22;46681;47.696;9.140;2023-09-19T17:47:43;23.80;53.90
60848;DHT22;46681;47.696;9.140;2023-09-19T17:50:25;23.70;54.00
60848;DHT22;46681;47.696;9.140;2023-09-19T17:53:00;23.70;54.10
60848;DHT22;46681;47.696;9.140;2023-09-19T17:55:36;23.60;54.00
60848;DHT22;46681;47.696;9.140;2023-09-19T17:58:07;23.50;54.00
60848;DHT22;46681;47.696;9.140;2023-09-19T18:00:41;23.50;54.20
60848;DHT22;46681;47.696;9.140;2023-09-19T18:03:09;23.40;54.20
60848;DHT22;46681;47.696;9.140;2023-09-19T18:08:53;23.20;54.30
60848;DHT22;46681;47.696;9.140;2023-09-19T18:11:27;23.10;54.60
60848;DHT22;46681;47.696;9.140;2023-09-19T18:13:56;23.10;54.50
60848;DHT22;46681;47.696;9.140;2023-09-19T18:16:22;23.00;54.70
60848;DHT22;46681;47.696;9.140;2023-09-19T18:18:55;23.00;55.00
60848;DHT22;46681;47.696;9.140;2023-09-19T18:21:34;22.90;55.10
60848;DHT22;46681;47.696;9.140;2023-09-19T18:24:01;22.80;55.00
60848;DHT22;46681;47.696;9.140;2023-09-19T18:26:32;22.70;55.20
60848;DHT22;46681;47.696;9.140;2023-09-19T18:29:03;22.70;55.50
60848;DHT22;46681;47.696;9.140;2023-09-19T18:31:28;22.60;55.80
60848;DHT22;46681;47.696;9.140;2023-09-19T18:34:02;22.60;55.90
60848;DHT22;46681;47.696;9.140;2023-09-19T18:36:33;22.50;56.00
60848;DHT22;46681;47.696;9.140;2023-09-19T18:39:00;22.40;55.80
60848;DHT22;46681;47.696;9.140;2023-09-19T18:41:29;22.40;56.10
60848;DHT22;46681;47.696;9.140;2023-09-19T18:44:10;22.30;56.00